createdAt,value
2022-12-14T00:00:25.326Z,19.07
2022-12-14T00:01:24.535Z,18.45
2022-12-14T00:02:21.936Z,18.90
2022-12-14T00:03:20.261Z,19.23
2022-12-14T00:04:17.742Z,18.49
2022-12-14T00:05:16.011Z,19.53
2022-12-14T00:06:18.249Z,18.88
2022-12-14T00:07:15.627Z,19.08
2022-12-14T00:08:14.200Z,18.88
2022-12-14T00:09:11.606Z,18.09
2022-12-14T00:10:09.242Z,16.73
2022-12-14T00:11:06.936Z,16.04
2022-12-14T00:12:04.384Z,16.73
2022-12-14T00:13:02.249Z,17.11
2022-12-14T00:14:00.915Z,16.58
2022-12-14T00:14:58.265Z,16.69
2022-12-14T00:15:55.695Z,16.80
2022-12-14T00:16:53.042Z,16.73
2022-12-14T00:17:50.450Z,16.47
2022-12-14T00:18:52.498Z,16.05
2022-12-14T00:19:49.881Z,16.94
2022-12-14T00:20:47.214Z,16.02
2022-12-14T00:21:45.438Z,16.22
2022-12-14T00:22:42.807Z,16.05
2022-12-14T00:23:41.746Z,16.21
2022-12-14T00:24:39.122Z,16.10
2022-12-14T00:25:36.686Z,14.97
2022-12-14T00:26:34.324Z,15.70
2022-12-14T00:27:31.662Z,15.66
2022-12-14T00:28:29.356Z,15.13
2022-12-14T00:29:26.889Z,15.06
2022-12-14T00:30:24.350Z,15.55
2022-12-14T00:31:22.973Z,14.68
2022-12-14T00:32:20.347Z,15.78
2022-12-14T00:33:17.696Z,15.28
2022-12-14T00:34:15.084Z,14.96
2022-12-14T00:35:15.359Z,14.42
2022-12-14T00:36:13.339Z,14.21
2022-12-14T00:37:11.085Z,13.88
2022-12-14T00:38:08.418Z,14.09
2022-12-14T00:39:05.903Z,13.77
2022-12-14T00:40:04.315Z,14.54
2022-12-14T00:41:01.727Z,14.17
2022-12-14T00:41:59.124Z,14.30
2022-12-14T00:42:56.449Z,14.58
2022-12-14T00:43:53.963Z,14.93
2022-12-14T00:44:51.319Z,14.08
2022-12-14T00:45:48.731Z,13.91
2022-12-14T00:46:46.491Z,12.78
2022-12-14T00:47:43.876Z,13.40
2022-12-14T00:48:42.417Z,13.78
2022-12-14T00:49:39.716Z,12.86
2022-12-14T00:50:37.497Z,13.19
2022-12-14T00:51:34.859Z,13.32
2022-12-14T00:52:32.197Z,13.32
2022-12-14T00:53:29.723Z,14.41
2022-12-14T00:54:27.067Z,13.01
2022-12-14T00:55:24.390Z,12.86
2022-12-14T00:56:21.744Z,11.95
2022-12-14T00:57:19.026Z,12.28
2022-12-14T00:58:18.319Z,11.46
2022-12-14T00:59:18.210Z,11.69
2022-12-14T01:00:17.276Z,12.38
2022-12-14T01:01:14.867Z,12.21
2022-12-14T01:02:12.456Z,12.32
2022-12-14T01:03:11.087Z,12.85
2022-12-14T01:04:17.546Z,11.86
2022-12-14T01:05:14.889Z,11.88
2022-12-14T01:06:20.071Z,11.34
2022-12-14T01:07:17.406Z,11.61
2022-12-14T01:08:14.909Z,11.05
2022-12-14T01:09:12.334Z,11.15
2022-12-14T01:10:09.918Z,10.51
2022-12-14T01:11:08.032Z,11.22
2022-12-14T01:12:05.561Z,11.95
2022-12-14T01:13:02.894Z,11.54
2022-12-14T01:14:00.295Z,11.40
2022-12-14T01:14:57.642Z,11.04
2022-12-14T01:15:55.041Z,10.89
2022-12-14T01:16:52.459Z,11.94
2022-12-14T01:17:51.303Z,11.48
2022-12-14T01:18:48.600Z,11.57
2022-12-14T01:19:45.948Z,11.94
2022-12-14T01:20:46.611Z,11.15
2022-12-14T01:21:43.965Z,11.13
2022-12-14T01:22:41.365Z,11.39
2022-12-14T01:23:38.844Z,11.02
2022-12-14T01:24:36.529Z,11.40
2022-12-14T01:25:34.400Z,11.34
2022-12-14T01:26:33.416Z,11.61
2022-12-14T01:27:30.935Z,11.15
2022-12-14T01:28:28.287Z,10.85
2022-12-14T01:29:25.688Z,10.47
2022-12-14T01:30:23.003Z,10.62
2022-12-14T01:31:21.862Z,10.97
2022-12-14T01:32:19.576Z,10.39
2022-12-14T01:33:16.890Z,10.38
2022-12-14T01:34:14.196Z,10.82
2022-12-14T01:35:11.563Z,10.44
2022-12-14T01:36:10.737Z,10.31
2022-12-14T01:37:08.016Z,10.19
2022-12-14T01:38:05.306Z,10.62
2022-12-14T01:39:04.962Z,10.26
2022-12-14T01:40:02.554Z,9.68
2022-12-14T01:41:00.074Z,10.63
2022-12-14T01:41:57.479Z,9.93
2022-12-14T01:42:54.822Z,10.39
2022-12-14T01:43:57.158Z,10.30
2022-12-14T01:44:56.155Z,9.91
2022-12-14T01:45:56.052Z,10.46
2022-12-14T01:47:13.643Z,10.66
2022-12-14T01:48:14.064Z,10.08
2022-12-14T01:49:28.891Z,9.88
2022-12-14T01:50:26.251Z,10.47
2022-12-14T01:51:25.753Z,9.93
2022-12-14T01:52:31.204Z,9.82
2022-12-14T01:53:28.838Z,9.65
2022-12-14T01:54:28.895Z,9.78
2022-12-14T01:55:48.974Z,9.95
2022-12-14T01:56:47.672Z,9.54
2022-12-14T01:57:50.581Z,9.84
2022-12-14T01:58:47.994Z,9.80
2022-12-14T01:59:47.318Z,9.54
2022-12-14T02:00:45.332Z,9.78
2022-12-14T02:01:43.094Z,9.28
2022-12-14T02:02:45.100Z,9.27
2022-12-14T02:03:47.098Z,9.80
2022-12-14T02:04:50.754Z,9.63
2022-12-14T02:05:52.509Z,8.94
2022-12-14T02:06:55.247Z,9.42
2022-12-14T02:07:57.304Z,9.92
2022-12-14T02:08:57.110Z,10.42
2022-12-14T02:09:57.723Z,9.84
2022-12-14T02:10:56.634Z,9.52
2022-12-14T02:12:12.509Z,9.50
2022-12-14T02:13:32.948Z,10.05
2022-12-14T02:14:30.645Z,9.31
2022-12-14T02:15:28.306Z,10.04
2022-12-14T02:16:25.595Z,9.35
2022-12-14T02:17:23.016Z,9.88
2022-12-14T02:18:21.834Z,10.09
2022-12-14T02:19:19.233Z,9.88
2022-12-14T02:20:17.181Z,9.59
2022-12-14T02:21:14.417Z,9.57
2022-12-14T02:22:23.694Z,9.82
2022-12-14T02:23:36.162Z,9.78
2022-12-14T02:24:48.651Z,9.87
2022-12-14T02:26:07.928Z,8.65
2022-12-14T02:27:08.008Z,9.55
2022-12-14T02:28:21.881Z,8.96
2022-12-14T02:29:27.951Z,8.83
2022-12-14T02:30:26.810Z,8.79
2022-12-14T02:31:40.611Z,8.97
2022-12-14T02:32:47.088Z,9.49
2022-12-14T02:33:47.202Z,9.07
2022-12-14T02:35:04.756Z,9.42
2022-12-14T02:36:22.334Z,8.90
2022-12-14T02:37:31.599Z,9.00
2022-12-14T02:38:31.781Z,9.54
2022-12-14T02:39:42.837Z,9.38
2022-12-14T02:40:47.429Z,9.28
2022-12-14T02:41:44.781Z,8.66
2022-12-14T02:42:54.704Z,8.93
2022-12-14T02:44:10.650Z,9.01
2022-12-14T02:45:20.109Z,8.57
2022-12-14T02:46:32.549Z,8.83
2022-12-14T02:47:44.952Z,9.23
2022-12-14T02:48:48.657Z,9.12
2022-12-14T02:50:01.021Z,9.03
2022-12-14T02:51:06.774Z,9.01
2022-12-14T02:52:19.778Z,9.41
2022-12-14T02:53:25.543Z,9.67
2022-12-14T02:54:41.211Z,9.39
2022-12-14T02:55:43.112Z,8.76
2022-12-14T02:56:46.501Z,9.33
2022-12-14T02:57:43.804Z,9.18
2022-12-14T02:58:46.707Z,9.35
2022-12-14T02:59:44.240Z,9.01
2022-12-14T03:00:42.466Z,9.14
2022-12-14T03:01:42.363Z,9.48
2022-12-14T03:02:47.068Z,9.30
2022-12-14T03:03:44.820Z,9.11
2022-12-14T03:04:47.488Z,8.96
2022-12-14T03:05:54.610Z,9.14
2022-12-14T03:07:03.835Z,9.94
2022-12-14T03:08:06.621Z,10.56
2022-12-14T03:09:14.662Z,9.43
2022-12-14T03:10:30.611Z,10.16
2022-12-14T03:11:43.995Z,9.14
2022-12-14T03:12:45.629Z,9.23
2022-12-14T03:13:55.540Z,9.84
2022-12-14T03:14:56.147Z,9.88
2022-12-14T03:16:16.223Z,9.41
2022-12-14T03:17:24.047Z,10.04
2022-12-14T03:18:25.010Z,9.96
2022-12-14T03:19:30.014Z,9.53
2022-12-14T03:20:31.628Z,10.26
2022-12-14T03:21:33.037Z,10.35
2022-12-14T03:22:37.375Z,9.99
2022-12-14T03:23:38.784Z,9.22
2022-12-14T03:24:45.330Z,9.56
2022-12-14T03:25:42.673Z,9.57
2022-12-14T03:26:47.518Z,9.92
2022-12-14T03:27:59.549Z,10.15
2022-12-14T03:29:01.417Z,9.99
2022-12-14T03:30:01.753Z,10.53
2022-12-14T03:31:07.812Z,10.23
2022-12-14T03:32:11.771Z,10.11
2022-12-14T03:33:15.128Z,9.56
2022-12-14T03:34:15.273Z,9.47
2022-12-14T03:35:18.536Z,10.17
2022-12-14T03:36:42.023Z,9.97
2022-12-14T03:37:42.974Z,9.63
2022-12-14T03:38:42.979Z,10.10
2022-12-14T03:39:42.642Z,10.38
2022-12-14T03:40:47.151Z,9.76
2022-12-14T03:41:59.145Z,9.90
2022-12-14T03:42:56.473Z,9.64
2022-12-14T03:44:06.975Z,9.77
2022-12-14T03:45:10.881Z,9.87
2022-12-14T03:46:15.435Z,9.71
2022-12-14T03:47:31.312Z,10.11
2022-12-14T03:48:41.365Z,10.65
2022-12-14T03:49:49.403Z,10.27
2022-12-14T03:50:46.681Z,9.53
2022-12-14T03:51:54.517Z,10.20
2022-12-14T03:53:00.925Z,9.52
2022-12-14T03:54:07.645Z,9.57
2022-12-14T03:55:16.678Z,10.09
2022-12-14T03:56:20.056Z,9.34
2022-12-14T03:57:39.511Z,9.92
2022-12-14T03:58:36.801Z,9.36
2022-12-14T03:59:47.913Z,9.70
2022-12-14T04:00:52.587Z,9.63
2022-12-14T04:02:04.735Z,8.96
2022-12-14T04:03:10.656Z,9.11
2022-12-14T04:04:27.975Z,9.64
2022-12-14T04:05:31.067Z,9.74
2022-12-14T04:06:40.305Z,9.24
2022-12-14T04:07:43.352Z,9.52
2022-12-14T04:08:45.382Z,9.23
2022-12-14T04:09:42.719Z,9.36
2022-12-14T04:11:03.531Z,8.84
2022-12-14T04:12:22.090Z,9.93
2022-12-14T04:14:02.130Z,9.63
2022-12-14T04:15:22.989Z,9.34
2022-12-14T04:16:44.277Z,10.02
2022-12-14T04:18:02.844Z,9.81
2022-12-14T04:19:06.436Z,9.69
2022-12-14T04:20:04.048Z,9.43
2022-12-14T04:21:06.870Z,9.42
2022-12-14T04:22:10.870Z,9.96
2022-12-14T04:23:15.650Z,9.79
2022-12-14T04:24:31.675Z,9.98
2022-12-14T04:25:53.150Z,10.03
2022-12-14T04:26:57.832Z,10.06
2022-12-14T04:28:05.873Z,9.94
2022-12-14T04:29:25.725Z,9.29
2022-12-14T04:30:23.217Z,9.67
2022-12-14T04:31:24.043Z,9.76
2022-12-14T04:32:44.513Z,10.00
2022-12-14T04:33:46.731Z,9.81
2022-12-14T04:34:47.525Z,10.05
2022-12-14T04:35:45.374Z,9.99
2022-12-14T04:37:08.789Z,9.76
2022-12-14T04:38:22.146Z,10.15
2022-12-14T04:39:26.283Z,10.57
2022-12-14T04:40:27.015Z,9.80
2022-12-14T04:41:31.046Z,10.54
2022-12-14T04:42:32.216Z,9.62
2022-12-14T04:43:36.909Z,10.51
2022-12-14T04:44:37.426Z,10.29
2022-12-14T04:45:44.868Z,10.64
2022-12-14T04:46:44.651Z,9.84
2022-12-14T04:47:48.145Z,9.63
2022-12-14T04:48:52.109Z,9.98
2022-12-14T04:49:54.427Z,10.39
2022-12-14T04:50:56.298Z,10.72
2022-12-14T04:52:05.743Z,10.37
2022-12-14T04:53:25.680Z,10.30
2022-12-14T04:54:36.075Z,10.03
2022-12-14T04:55:53.648Z,10.82
2022-12-14T04:57:14.549Z,9.60
2022-12-14T04:58:16.171Z,10.46
2022-12-14T04:59:13.728Z,10.47
2022-12-14T05:00:11.422Z,10.47
2022-12-14T05:01:28.994Z,10.04
2022-12-14T05:02:46.661Z,10.04
2022-12-14T05:04:12.110Z,9.93
2022-12-14T05:05:28.510Z,10.49
2022-12-14T05:06:25.894Z,10.42
2022-12-14T05:07:34.344Z,10.79
2022-12-14T05:08:49.082Z,10.11
2022-12-14T05:09:52.275Z,9.74
2022-12-14T05:11:14.960Z,9.79
2022-12-14T05:12:22.727Z,10.24
2022-12-14T05:13:27.534Z,10.20
2022-12-14T05:14:32.930Z,10.43
2022-12-14T05:15:41.419Z,10.01
2022-12-14T05:16:38.888Z,10.42
2022-12-14T05:17:40.142Z,10.45
2022-12-14T05:18:38.340Z,11.00
2022-12-14T05:19:35.751Z,10.93
2022-12-14T05:20:33.193Z,10.32
2022-12-14T05:21:48.868Z,10.97
2022-12-14T05:22:46.221Z,10.58
2022-12-14T05:23:43.546Z,10.56
2022-12-14T05:24:40.880Z,10.41
2022-12-14T05:25:38.229Z,10.59
2022-12-14T05:26:35.600Z,10.27
2022-12-14T05:27:33.008Z,11.20
2022-12-14T05:28:30.360Z,11.77
2022-12-14T05:29:27.723Z,11.55
2022-12-14T05:30:25.113Z,11.15
2022-12-14T05:31:23.051Z,11.21
2022-12-14T05:32:20.529Z,11.11
2022-12-14T05:33:19.917Z,10.97
2022-12-14T05:34:17.429Z,11.46
2022-12-14T05:35:15.159Z,11.99
2022-12-14T05:36:12.480Z,11.53
2022-12-14T05:37:16.256Z,11.40
2022-12-14T05:38:15.466Z,11.87
2022-12-14T05:39:13.222Z,10.43
2022-12-14T05:40:10.867Z,11.97
2022-12-14T05:41:08.232Z,12.44
2022-12-14T05:42:05.577Z,11.74
2022-12-14T05:43:07.060Z,12.37
2022-12-14T05:44:04.485Z,11.31
2022-12-14T05:45:01.799Z,12.68
2022-12-14T05:46:03.489Z,13.18
2022-12-14T05:47:00.958Z,11.83
2022-12-14T05:47:58.442Z,11.57
2022-12-14T05:48:55.802Z,11.90
2022-12-14T05:49:53.411Z,11.60
2022-12-14T05:50:51.704Z,11.69
2022-12-14T05:51:49.287Z,11.02
2022-12-14T05:52:46.649Z,11.95
2022-12-14T05:53:44.113Z,11.68
2022-12-14T05:54:41.665Z,11.84
2022-12-14T05:55:38.978Z,11.39
2022-12-14T05:56:36.359Z,12.42
2022-12-14T05:57:33.716Z,12.95
2022-12-14T05:58:31.746Z,12.24
2022-12-14T05:59:29.080Z,13.07
2022-12-14T06:00:27.296Z,12.35
2022-12-14T06:01:24.701Z,12.87
2022-12-14T06:02:22.117Z,12.29
2022-12-14T06:03:20.243Z,12.58
2022-12-14T06:04:18.528Z,12.97
2022-12-14T06:05:15.975Z,12.20
2022-12-14T06:06:14.511Z,12.31
2022-12-14T06:07:12.683Z,12.92
2022-12-14T06:08:10.014Z,13.35
2022-12-14T06:09:08.945Z,12.92
2022-12-14T06:10:06.626Z,13.56
2022-12-14T06:11:05.959Z,12.87
2022-12-14T06:12:03.363Z,13.07
2022-12-14T06:13:00.746Z,13.22
2022-12-14T06:13:58.105Z,13.12
2022-12-14T06:14:55.452Z,13.03
2022-12-14T06:15:52.800Z,12.79
2022-12-14T06:16:50.179Z,12.58
2022-12-14T06:17:47.492Z,13.41
2022-12-14T06:18:46.247Z,13.63
2022-12-14T06:19:49.863Z,13.94
2022-12-14T06:20:47.841Z,12.65
2022-12-14T06:21:45.187Z,12.62
2022-12-14T06:22:47.348Z,13.43
2022-12-14T06:23:45.628Z,13.36
2022-12-14T06:24:43.099Z,13.24
2022-12-14T06:25:40.480Z,12.37
2022-12-14T06:26:37.954Z,12.78
2022-12-14T06:27:35.700Z,15.45
2022-12-14T06:28:33.137Z,14.79
2022-12-14T06:29:30.499Z,14.07
2022-12-14T06:30:28.583Z,13.00
2022-12-14T06:31:27.878Z,12.81
2022-12-14T06:32:25.972Z,12.67
2022-12-14T06:33:23.531Z,12.98
2022-12-14T06:34:24.982Z,12.25
2022-12-14T06:35:25.691Z,12.61
2022-12-14T06:36:27.889Z,12.62
2022-12-14T06:37:25.533Z,13.11
2022-12-14T06:38:22.968Z,12.72
2022-12-14T06:39:20.307Z,13.59
2022-12-14T06:40:17.708Z,12.29
2022-12-14T06:41:15.194Z,12.58
2022-12-14T06:42:12.571Z,14.16
2022-12-14T06:43:10.087Z,12.48
2022-12-14T06:44:09.717Z,12.84
2022-12-14T06:45:07.182Z,12.27
2022-12-14T06:46:14.589Z,13.41
2022-12-14T06:47:12.618Z,13.13
2022-12-14T06:48:09.978Z,12.09
2022-12-14T06:49:07.315Z,12.35
2022-12-14T06:50:04.906Z,12.88
2022-12-14T06:51:02.764Z,12.69
2022-12-14T06:52:00.286Z,13.06
2022-12-14T06:52:57.784Z,12.78
2022-12-14T06:53:56.266Z,12.48
2022-12-14T06:54:53.604Z,12.79
2022-12-14T06:55:50.921Z,12.66
2022-12-14T06:56:48.495Z,12.33
2022-12-14T06:57:45.984Z,12.45
2022-12-14T06:58:43.936Z,13.51
2022-12-14T06:59:41.238Z,12.99
2022-12-14T07:00:38.612Z,12.69
2022-12-14T07:01:37.018Z,12.43
2022-12-14T07:02:34.705Z,12.87
2022-12-14T07:03:32.504Z,13.19
2022-12-14T07:04:30.227Z,13.01
2022-12-14T07:05:27.566Z,13.99
2022-12-14T07:06:26.595Z,14.74
2022-12-14T07:07:24.009Z,14.80
2022-12-14T07:08:21.341Z,16.18
2022-12-14T07:09:18.712Z,15.86
2022-12-14T07:10:16.005Z,15.14
2022-12-14T07:11:14.782Z,15.50
2022-12-14T07:12:12.208Z,14.89
2022-12-14T07:13:09.612Z,15.06
2022-12-14T07:14:07.391Z,15.39
2022-12-14T07:15:05.115Z,16.41
2022-12-14T07:16:04.885Z,15.43
2022-12-14T07:17:02.269Z,15.85
2022-12-14T07:17:59.621Z,15.85
2022-12-14T07:18:57.071Z,15.26
2022-12-14T07:19:54.446Z,15.05
2022-12-14T07:21:05.813Z,15.57
2022-12-14T07:22:04.724Z,14.81
2022-12-14T07:23:02.166Z,14.86
2022-12-14T07:24:00.731Z,14.07
2022-12-14T07:24:58.701Z,14.37
2022-12-14T07:26:03.463Z,14.36
2022-12-14T07:27:00.999Z,15.54
2022-12-14T07:27:58.483Z,14.97
2022-12-14T07:28:58.122Z,15.32
2022-12-14T07:29:56.072Z,15.38
2022-12-14T07:30:55.713Z,14.67
2022-12-14T07:31:53.355Z,15.08
2022-12-14T07:32:50.724Z,14.42
2022-12-14T07:33:48.133Z,13.66
2022-12-14T07:34:45.454Z,14.68
2022-12-14T07:35:42.742Z,13.71
2022-12-14T07:36:40.064Z,13.76
2022-12-14T07:37:37.458Z,14.04
2022-12-14T07:38:36.225Z,13.63
2022-12-14T07:39:33.525Z,13.56
2022-12-14T07:40:33.954Z,14.04
2022-12-14T07:41:32.441Z,14.20
2022-12-14T07:42:29.881Z,13.81
2022-12-14T07:43:27.632Z,13.66
2022-12-14T07:44:25.185Z,12.94
2022-12-14T07:45:22.456Z,14.36
2022-12-14T07:46:21.388Z,14.45
2022-12-14T07:47:18.768Z,14.91
2022-12-14T07:48:16.169Z,14.35
2022-12-14T07:49:13.595Z,14.22
2022-12-14T07:50:11.093Z,14.48
2022-12-14T07:51:10.008Z,14.70
2022-12-14T07:52:07.417Z,14.79
2022-12-14T07:53:04.765Z,13.53
2022-12-14T07:54:03.785Z,13.82
2022-12-14T07:55:01.247Z,14.36
2022-12-14T07:56:02.404Z,14.10
2022-12-14T07:56:59.773Z,13.52
2022-12-14T07:57:57.107Z,13.91
2022-12-14T07:58:55.592Z,13.95
2022-12-14T07:59:57.202Z,13.87
2022-12-14T08:00:54.931Z,13.72
2022-12-14T08:01:53.944Z,12.94
2022-12-14T08:02:54.891Z,13.66
2022-12-14T08:03:54.267Z,13.67
2022-12-14T08:04:51.615Z,13.97
2022-12-14T08:05:48.971Z,13.69
2022-12-14T08:06:47.803Z,14.37
2022-12-14T08:07:45.143Z,13.88
2022-12-14T08:08:42.755Z,13.24
2022-12-14T08:09:40.620Z,13.18
2022-12-14T08:10:40.469Z,13.27
2022-12-14T08:11:38.207Z,13.30
2022-12-14T08:12:35.550Z,13.10
2022-12-14T08:13:33.374Z,12.59
2022-12-14T08:14:30.838Z,13.01
2022-12-14T08:15:28.283Z,13.46
2022-12-14T08:16:26.399Z,12.99
2022-12-14T08:17:23.822Z,12.69
2022-12-14T08:18:21.272Z,13.32
2022-12-14T08:19:19.761Z,12.68
2022-12-14T08:20:17.206Z,12.84
2022-12-14T08:21:15.850Z,12.69
2022-12-14T08:22:13.282Z,13.08
2022-12-14T08:23:11.434Z,13.46
2022-12-14T08:24:13.353Z,13.34
2022-12-14T08:25:10.715Z,13.12
2022-12-14T08:26:08.968Z,13.56
2022-12-14T08:27:07.041Z,13.75
2022-12-14T08:28:04.457Z,13.25
2022-12-14T08:29:02.530Z,13.11
2022-12-14T08:29:59.860Z,13.65
2022-12-14T08:30:57.756Z,12.69
2022-12-14T08:31:55.460Z,12.70
2022-12-14T08:32:52.905Z,12.58
2022-12-14T08:33:50.482Z,13.51
2022-12-14T08:34:47.816Z,13.52
2022-12-14T08:35:45.379Z,13.16
2022-12-14T08:36:42.708Z,12.82
2022-12-14T08:37:45.790Z,12.69
2022-12-14T08:38:44.757Z,12.80
2022-12-14T08:39:42.070Z,13.44
2022-12-14T08:40:40.107Z,14.22
2022-12-14T08:41:37.450Z,13.88
2022-12-14T08:42:34.796Z,12.95
2022-12-14T08:43:32.971Z,13.16
2022-12-14T08:44:30.576Z,11.78
2022-12-14T08:45:27.958Z,11.86
2022-12-14T08:46:26.815Z,11.28
2022-12-14T08:47:24.205Z,11.27
2022-12-14T08:48:21.489Z,11.16
2022-12-14T08:49:18.899Z,11.62
2022-12-14T08:50:16.262Z,10.96
2022-12-14T08:51:13.645Z,10.92
2022-12-14T08:52:11.613Z,11.08
2022-12-14T08:53:08.978Z,10.76
2022-12-14T08:54:06.381Z,11.15
2022-12-14T08:55:03.921Z,10.80
2022-12-14T08:56:08.664Z,10.52
2022-12-14T08:57:06.019Z,10.38
2022-12-14T08:58:03.461Z,10.58
2022-12-14T08:59:00.860Z,10.45
2022-12-14T09:00:01.718Z,9.88
2022-12-14T09:01:01.058Z,9.93
2022-12-14T09:01:58.824Z,9.79
2022-12-14T09:02:56.437Z,9.92
2022-12-14T09:03:53.794Z,10.45
2022-12-14T09:04:51.718Z,10.40
2022-12-14T09:05:49.042Z,9.99
2022-12-14T09:06:46.456Z,9.71
2022-12-14T09:07:43.854Z,9.76
2022-12-14T09:08:41.264Z,10.11
2022-12-14T09:09:38.578Z,9.55
2022-12-14T09:10:35.924Z,9.67
2022-12-14T09:11:33.292Z,9.67
2022-12-14T09:12:30.561Z,9.77
2022-12-14T09:13:28.631Z,9.79
2022-12-14T09:14:26.265Z,9.73
2022-12-14T09:15:23.624Z,10.23
2022-12-14T09:16:22.178Z,9.46
2022-12-14T09:17:19.579Z,9.95
2022-12-14T09:18:16.878Z,10.33
2022-12-14T09:19:14.854Z,10.45
2022-12-14T09:20:13.661Z,10.38
2022-12-14T09:21:11.038Z,10.04
2022-12-14T09:22:08.504Z,10.14
2022-12-14T09:23:05.910Z,10.34
2022-12-14T09:24:03.392Z,10.71
2022-12-14T09:25:00.830Z,10.24
2022-12-14T09:26:02.830Z,10.46
2022-12-14T09:27:01.150Z,10.21
2022-12-14T09:28:00.848Z,10.56
2022-12-14T09:28:58.239Z,10.44
2022-12-14T09:29:55.639Z,10.57
2022-12-14T09:31:00.421Z,10.39
2022-12-14T09:31:57.807Z,10.45
2022-12-14T09:32:55.306Z,9.78
2022-12-14T09:33:52.663Z,9.93
2022-12-14T09:34:50.005Z,10.72
2022-12-14T09:35:47.371Z,10.84
2022-12-14T09:36:44.803Z,10.41
2022-12-14T09:37:42.237Z,10.61
2022-12-14T09:38:41.414Z,11.11
2022-12-14T09:39:46.229Z,10.84
2022-12-14T09:40:55.889Z,11.49
2022-12-14T09:42:14.801Z,11.08
2022-12-14T09:43:24.818Z,10.80
2022-12-14T09:44:53.390Z,11.26
2022-12-14T09:45:57.055Z,11.30
2022-12-14T09:47:14.679Z,10.77
2022-12-14T09:48:18.664Z,10.36
2022-12-14T09:49:27.964Z,10.52
2022-12-14T09:50:27.190Z,10.10
2022-12-14T09:51:31.811Z,10.76
2022-12-14T09:52:47.546Z,10.58
2022-12-14T09:53:47.841Z,10.50
2022-12-14T09:54:50.074Z,10.16
2022-12-14T09:55:55.196Z,10.22
2022-12-14T09:56:57.801Z,9.99
2022-12-14T09:58:18.647Z,9.98
2022-12-14T09:59:20.877Z,9.91
2022-12-14T10:00:20.119Z,10.08
2022-12-14T10:01:20.641Z,10.99
2022-12-14T10:02:33.012Z,10.83
2022-12-14T10:03:31.685Z,10.65
2022-12-14T10:04:36.815Z,9.54
2022-12-14T10:05:52.879Z,9.89
2022-12-14T10:07:02.308Z,9.65
2022-12-14T10:08:18.127Z,9.82
2022-12-14T10:09:39.937Z,9.39
2022-12-14T10:11:00.437Z,9.90
2022-12-14T10:12:08.795Z,9.98
2022-12-14T10:13:24.706Z,9.35
2022-12-14T10:14:22.274Z,9.32
2022-12-14T10:15:38.014Z,9.64
2022-12-14T10:16:48.521Z,9.30
2022-12-14T10:18:00.928Z,8.69
2022-12-14T10:18:59.936Z,9.31
2022-12-14T10:20:08.344Z,9.12
2022-12-14T10:21:16.158Z,8.86
2022-12-14T10:22:17.215Z,8.79
2022-12-14T10:23:22.562Z,8.43
2022-12-14T10:24:24.572Z,8.92
2022-12-14T10:25:26.404Z,8.57
2022-12-14T10:26:27.690Z,7.97
2022-12-14T10:27:27.361Z,8.24
2022-12-14T10:28:39.937Z,7.72
2022-12-14T10:29:41.718Z,8.86
2022-12-14T10:30:42.044Z,8.32
2022-12-14T10:32:00.246Z,8.53
2022-12-14T10:33:05.377Z,8.55
2022-12-14T10:34:14.454Z,8.67
2022-12-14T10:35:15.910Z,8.84
2022-12-14T10:36:14.148Z,8.43
2022-12-14T10:37:14.340Z,8.54
2022-12-14T10:38:32.491Z,8.33
2022-12-14T10:39:35.955Z,8.44
2022-12-14T10:40:35.228Z,8.22
2022-12-14T10:41:51.051Z,8.00
2022-12-14T10:43:07.654Z,7.88
2022-12-14T10:44:05.221Z,8.00
2022-12-14T10:46:44.619Z,8.85
2022-12-14T10:47:45.119Z,8.65
2022-12-14T10:48:46.175Z,8.64
2022-12-14T10:49:49.470Z,8.38
2022-12-14T10:50:49.952Z,8.44
2022-12-14T10:51:56.064Z,8.43
2022-12-14T10:52:54.800Z,8.84
2022-12-14T10:53:52.101Z,9.10
2022-12-14T10:54:52.819Z,9.42
2022-12-14T10:55:54.063Z,9.05
2022-12-14T10:56:51.682Z,8.64
2022-12-14T10:57:49.062Z,8.62
2022-12-14T10:59:06.288Z,9.12
2022-12-14T11:00:18.483Z,9.50
2022-12-14T11:01:22.121Z,8.68
2022-12-14T11:02:24.479Z,8.59
2022-12-14T11:03:22.346Z,9.28
2022-12-14T11:04:31.195Z,9.04
2022-12-14T11:05:55.461Z,9.18
2022-12-14T11:06:52.876Z,9.45
2022-12-14T11:07:51.352Z,9.32
2022-12-14T11:08:49.464Z,8.80
2022-12-14T11:09:47.085Z,9.54
2022-12-14T11:10:44.616Z,9.26
2022-12-14T11:11:43.107Z,9.31
2022-12-14T11:12:40.501Z,9.03
2022-12-14T11:13:37.962Z,8.63
2022-12-14T11:14:36.963Z,8.72
2022-12-14T11:15:44.359Z,8.74
2022-12-14T11:16:41.896Z,8.44
2022-12-14T11:17:44.151Z,8.37
2022-12-14T11:18:41.525Z,8.29
2022-12-14T11:19:38.895Z,8.45
2022-12-14T11:20:36.278Z,8.68
2022-12-14T11:21:37.127Z,9.00
2022-12-14T11:23:06.934Z,7.79
2022-12-14T11:24:05.026Z,8.11
2022-12-14T11:25:02.362Z,8.49
2022-12-14T11:26:03.468Z,8.07
2022-12-14T11:27:05.864Z,7.68
2022-12-14T11:28:15.123Z,7.85
2022-12-14T11:29:44.457Z,7.97
2022-12-14T11:30:52.285Z,6.99
2022-12-14T11:31:53.914Z,7.34
2022-12-14T11:32:52.102Z,7.88
2022-12-14T11:33:51.649Z,8.08
2022-12-14T11:34:54.784Z,8.33
2022-12-14T11:35:52.905Z,7.48
2022-12-14T11:36:50.337Z,7.76
2022-12-14T11:37:57.981Z,7.44
2022-12-14T11:39:00.430Z,7.50
2022-12-14T11:40:00.249Z,7.69
2022-12-14T11:41:02.635Z,7.56
2022-12-14T11:42:04.589Z,7.29
2022-12-14T11:43:04.615Z,7.24
2022-12-14T11:44:16.950Z,7.94
2022-12-14T11:45:26.326Z,8.03
2022-12-14T11:46:44.437Z,7.79
2022-12-14T11:47:42.416Z,7.85
2022-12-14T11:48:48.107Z,7.22
2022-12-14T11:49:54.314Z,7.20
2022-12-14T11:50:53.485Z,7.58
2022-12-14T11:52:11.199Z,7.17
2022-12-14T11:53:12.941Z,7.11
2022-12-14T11:54:10.231Z,6.99
2022-12-14T11:55:15.668Z,7.30
2022-12-14T11:56:16.810Z,7.23
2022-12-14T11:57:14.097Z,7.61
2022-12-14T11:58:16.695Z,7.67
2022-12-14T11:59:16.598Z,7.76
2022-12-14T12:00:19.691Z,6.94
2022-12-14T12:01:22.472Z,7.59
2022-12-14T12:02:27.216Z,7.29
2022-12-14T12:03:28.843Z,7.69
2022-12-14T12:04:26.292Z,7.46
2022-12-14T12:05:24.079Z,7.51
2022-12-14T12:06:24.469Z,7.13
2022-12-14T12:07:28.303Z,7.19
2022-12-14T12:08:28.219Z,7.64
2022-12-14T12:09:30.082Z,7.53
2022-12-14T12:10:40.148Z,7.34
2022-12-14T12:11:44.407Z,7.81
2022-12-14T12:12:54.020Z,7.76
2022-12-14T12:13:56.995Z,7.58
2022-12-14T12:14:56.711Z,7.43
2022-12-14T12:16:02.133Z,7.64
2022-12-14T12:16:59.607Z,7.09
2022-12-14T12:18:01.699Z,7.08
2022-12-14T12:18:59.080Z,7.30
2022-12-14T12:19:57.774Z,7.32
2022-12-14T12:21:13.629Z,7.50
2022-12-14T12:22:13.955Z,7.49
2022-12-14T12:23:17.900Z,7.21
2022-12-14T12:24:34.640Z,7.85
2022-12-14T12:25:37.437Z,7.28
2022-12-14T12:26:53.652Z,7.43
2022-12-14T12:27:59.717Z,7.58
2022-12-14T12:29:10.148Z,7.62
2022-12-14T12:30:17.563Z,7.50
2022-12-14T12:31:21.341Z,6.88
2022-12-14T12:32:18.708Z,7.33
2022-12-14T12:33:22.200Z,7.43
2022-12-14T12:34:24.099Z,7.34
2022-12-14T12:35:36.962Z,7.45
2022-12-14T12:36:34.372Z,7.36
2022-12-14T12:37:36.544Z,7.57
2022-12-14T12:38:33.932Z,7.10
2022-12-14T12:39:35.257Z,7.32
2022-12-14T12:40:36.777Z,6.77
2022-12-14T12:42:05.195Z,7.16
2022-12-14T12:43:02.946Z,7.09
2022-12-14T12:44:18.446Z,7.06
2022-12-14T12:45:15.748Z,7.34
2022-12-14T12:46:23.299Z,7.22
2022-12-14T12:47:41.429Z,6.87
2022-12-14T12:48:49.162Z,7.20
2022-12-14T12:49:46.568Z,7.44
2022-12-14T12:50:49.612Z,7.40
2022-12-14T12:51:54.283Z,7.66
2022-12-14T12:52:51.612Z,7.26
2022-12-14T12:53:55.689Z,7.49
2022-12-14T12:55:01.384Z,6.85
2022-12-14T12:56:08.778Z,7.00
2022-12-14T12:57:09.847Z,7.88
2022-12-14T12:58:10.049Z,7.11
2022-12-14T12:59:15.617Z,6.90
2022-12-14T13:00:21.465Z,6.42
2022-12-14T13:01:27.173Z,6.56
2022-12-14T13:02:34.728Z,6.94
2022-12-14T13:03:38.689Z,6.65
2022-12-14T13:04:39.278Z,7.00
2022-12-14T13:05:48.696Z,6.78
2022-12-14T13:06:55.792Z,6.91
2022-12-14T13:07:56.304Z,6.53
2022-12-14T13:08:57.689Z,6.58
2022-12-14T13:10:06.094Z,6.78
2022-12-14T13:11:27.955Z,7.25
2022-12-14T13:12:30.457Z,6.56
2022-12-14T13:13:31.677Z,6.81
2022-12-14T13:14:49.839Z,6.84
2022-12-14T13:15:57.026Z,7.62
2022-12-14T13:16:55.713Z,6.78
2022-12-14T13:18:33.809Z,6.85
2022-12-14T13:19:54.691Z,7.36
2022-12-14T13:20:54.436Z,7.17
2022-12-14T13:21:52.930Z,7.23
2022-12-14T13:22:53.291Z,7.17
2022-12-14T13:23:51.651Z,7.42
2022-12-14T13:24:56.976Z,7.09
2022-12-14T13:26:28.162Z,7.13
2022-12-14T13:27:43.853Z,7.22
2022-12-14T13:28:47.124Z,7.40
2022-12-14T13:30:10.076Z,7.25
2022-12-14T13:31:16.454Z,7.31
2022-12-14T13:32:13.816Z,7.03
2022-12-14T13:33:16.841Z,6.99
2022-12-14T13:34:23.107Z,7.20